Decoded Metar for KOFP (RICHMOND/HANOVER in VA, USA) (IATA:OFP) | Meteo·Mobile Aviation Weather
aviador You're here:

KOFP Decoded Metar

RICHMOND/HANOVER in VA, USA
Report Time2019-07-22 00:54:00
UTC Time2019-07-22 01:34:00
Flight Rules vfr VFR
Wind280° at 05 kt
W.Decomp.*RWY 34: 3.1 kt HW 3.9 kt LCW
Visibility9999 m
Phenomena:N/A
Clouds:N/A
Expected CloudBase > 3,600 ft AGL from Temp-Dew spread
CeilingNone
Temp28°C (ISA +13)
Dew Point19°C (58% RH)
Heat Index29.2°C
QNH1013 hPa
Density Alt2,037 ft
Elevation203 ft
Report Wrong Elevation
Raw Report
KOFP 220054Z AUTO 28005KT 10SM CLR 28/19 A2991 RMK AO2 SLP125
T02780194=

Extra information for KOFP:More info

Metar Taf Metar & Taf Last 4 Metars F.Rules Stats Wind Profile Meteogram Temp Stats Airport Information Weather charts Add Link Nearby VenuesMetar ALERT Operation Metar Decoded Social comments

AIRNAV info for KOFP